createdAt,value
2016-11-16T19:26:05.706Z,200
2016-11-16T19:26:43.347Z,195
2016-11-16T19:27:54.905Z,185
2016-11-16T19:29:05.644Z,175
2016-11-16T19:30:16.456Z,170
2016-11-16T19:31:27.661Z,175
2016-11-16T19:32:38.578Z,180
2016-11-16T19:33:49.271Z,185
2016-11-16T19:35:00.409Z,195
2016-11-16T19:36:11.118Z,200
2016-11-16T19:37:22.394Z,205
2016-11-16T19:38:33.118Z,210
2016-11-16T19:39:47.288Z,210
2016-11-16T19:40:58.049Z,205
2016-11-16T19:42:08.751Z,205
2016-11-16T19:43:19.849Z,210
2016-11-16T19:44:30.510Z,205
2016-11-16T19:45:41.575Z,205
2016-11-16T19:46:52.349Z,205
2016-11-16T19:48:03.105Z,205
2016-11-16T19:49:13.892Z,200
2016-11-16T19:50:26.265Z,200
2016-11-16T19:51:37.741Z,200
2016-11-16T19:52:48.572Z,205
2016-11-16T19:53:59.724Z,235
2016-11-16T19:55:10.508Z,270
2016-11-16T19:56:22.012Z,310
2016-11-16T19:57:33.119Z,335
2016-11-16T19:58:43.879Z,350
2016-11-16T19:59:54.631Z,350
2016-11-16T20:01:06.401Z,345
2016-11-16T20:02:17.575Z,350
2016-11-16T20:03:28.647Z,350
2016-11-16T20:04:39.427Z,315
2016-11-16T20:05:50.178Z,280
2016-11-16T20:07:01.000Z,250
2016-11-16T20:08:11.670Z,230
2016-11-16T20:09:22.456Z,205
2016-11-16T20:10:33.116Z,190
2016-11-16T20:11:43.825Z,190
2016-11-16T20:12:54.696Z,200
2016-11-16T20:14:05.402Z,205
2016-11-16T20:15:16.106Z,195
2016-11-16T20:16:27.242Z,185
2016-11-16T20:17:37.898Z,180
2016-11-16T20:18:49.131Z,175
2016-11-16T20:20:00.251Z,175
2016-11-16T20:21:11.445Z,170
2016-11-16T20:22:22.733Z,170
2016-11-16T20:23:33.478Z,160
2016-11-16T20:24:44.225Z,115
2016-11-16T20:25:55.015Z,45
2016-11-16T20:27:07.271Z,15
2016-11-16T20:28:17.964Z,15
2016-11-16T20:29:28.688Z,15
2016-11-16T20:30:39.577Z,20
2016-11-16T20:31:50.764Z,10
2016-11-16T20:33:01.549Z,5
2016-11-16T20:34:12.606Z,5
2016-11-16T20:35:23.694Z,10
2016-11-16T20:36:34.561Z,15
2016-11-16T20:37:46.138Z,15
2016-11-16T20:38:56.872Z,30
2016-11-16T20:40:07.603Z,35
2016-11-16T20:41:18.740Z,25
2016-11-16T20:42:30.604Z,30
2016-11-16T20:43:41.233Z,35
2016-11-16T20:44:51.939Z,30
2016-11-16T20:46:02.664Z,25
2016-11-16T20:47:13.738Z,20
2016-11-16T20:48:24.629Z,10
2016-11-16T20:49:35.882Z,10
2016-11-16T20:50:47.024Z,5
2016-11-16T20:51:57.790Z,5
2016-11-16T20:53:08.995Z,5
2016-11-16T20:54:20.185Z,10
2016-11-16T20:55:31.394Z,10
2016-11-16T20:56:42.112Z,10
2016-11-16T20:57:53.154Z,10
2016-11-16T20:59:04.627Z,10
2016-11-16T21:00:15.318Z,10
2016-11-16T21:01:26.076Z,10
2016-11-16T21:02:37.135Z,10
2016-11-16T21:03:48.095Z,10
2016-11-16T21:04:59.207Z,10
2016-11-16T21:06:09.974Z,5
2016-11-16T21:07:20.717Z,5
2016-11-16T21:08:31.458Z,5
2016-11-16T21:09:42.495Z,5
2016-11-16T21:10:53.639Z,5
2016-11-16T21:12:04.513Z,5
2016-11-16T21:13:15.209Z,0
2016-11-16T21:14:25.965Z,0
2016-11-16T21:15:38.434Z,0
2016-11-16T21:16:49.075Z,0
2016-11-16T21:17:59.981Z,0
2016-11-16T21:19:11.113Z,0
2016-11-16T21:20:22.239Z,0
2016-11-16T21:21:32.900Z,0
2016-11-16T21:22:43.617Z,0
2016-11-16T21:23:54.289Z,0
2016-11-16T21:25:06.134Z,0
2016-11-16T21:26:16.792Z,0
2016-11-16T21:27:27.468Z,0
2016-11-16T21:28:38.138Z,0
2016-11-16T21:29:48.844Z,0
2016-11-16T21:30:59.526Z,0
2016-11-16T21:32:11.310Z,0
2016-11-16T21:33:23.322Z,0
2016-11-16T21:34:34.125Z,0
2016-11-16T21:35:44.974Z,0
2016-11-16T21:36:55.642Z,0
2016-11-16T21:38:06.633Z,0
2016-11-16T21:39:17.338Z,0
2016-11-16T21:40:28.097Z,0
2016-11-16T21:41:38.859Z,0
2016-11-16T21:42:49.594Z,0
2016-11-16T21:44:00.345Z,0
2016-11-16T21:45:11.441Z,0
2016-11-16T21:46:22.662Z,0
2016-11-16T21:47:33.600Z,0
2016-11-16T21:49:58.339Z,0
2016-11-16T21:51:09.969Z,0
2016-11-16T21:52:20.990Z,0
2016-11-16T21:53:31.822Z,0
2016-11-16T21:54:42.502Z,0
2016-11-16T21:55:54.101Z,0
2016-11-16T21:57:04.857Z,0
2016-11-16T21:58:15.621Z,0
2016-11-16T21:59:26.497Z,0
2016-11-16T22:00:37.569Z,0
2016-11-16T22:01:48.357Z,0
2016-11-16T22:03:00.852Z,0
2016-11-16T22:04:11.518Z,0
2016-11-16T22:05:22.553Z,0
2016-11-16T22:06:33.266Z,0
2016-11-16T22:07:43.992Z,0
2016-11-16T22:08:55.196Z,0
2016-11-16T22:10:06.257Z,0
2016-11-16T22:11:17.085Z,0
2016-11-16T22:12:28.142Z,0
2016-11-16T22:13:39.201Z,0
2016-11-16T22:14:49.913Z,0
2016-11-16T22:16:00.587Z,0
2016-11-16T22:17:11.336Z,0
2016-11-16T22:18:22.432Z,0
2016-11-16T22:19:33.486Z,0
2016-11-16T22:20:44.590Z,0
2016-11-16T22:21:55.685Z,0
2016-11-16T22:23:06.335Z,0
2016-11-16T22:24:17.013Z,0
2016-11-16T22:25:28.096Z,0
2016-11-16T22:26:38.744Z,0
2016-11-16T22:27:49.391Z,0
2016-11-16T22:29:01.101Z,0
2016-11-16T22:30:11.787Z,0
2016-11-16T22:31:22.935Z,0
2016-11-16T22:32:33.703Z,0
2016-11-16T22:33:44.739Z,0
2016-11-16T22:34:56.309Z,0
2016-11-16T22:36:07.049Z,0
2016-11-16T22:37:17.732Z,0
2016-11-16T22:38:29.245Z,0
2016-11-16T22:39:40.005Z,0
2016-11-16T22:40:51.119Z,0
2016-11-16T22:42:02.251Z,0
2016-11-16T22:43:12.970Z,0
2016-11-16T22:44:23.634Z,0
2016-11-16T22:45:34.827Z,0
2016-11-16T22:46:46.207Z,0
2016-11-16T22:47:57.696Z,0
2016-11-16T22:49:08.827Z,0
2016-11-16T22:50:19.509Z,0
2016-11-16T22:51:30.264Z,0
2016-11-16T22:52:41.419Z,0
2016-11-16T22:53:52.123Z,0
2016-11-16T22:55:03.246Z,0
2016-11-16T22:56:14.260Z,0
2016-11-16T22:57:25.403Z,0
2016-11-16T22:58:36.086Z,0
2016-11-16T22:59:46.772Z,0
2016-11-16T23:00:57.490Z,0
2016-11-16T23:02:08.221Z,0
2016-11-16T23:03:19.347Z,0
2016-11-16T23:04:30.110Z,0
2016-11-16T23:05:40.829Z,0
2016-11-16T23:06:51.845Z,0
2016-11-16T23:08:02.582Z,0
2016-11-16T23:09:13.711Z,0
2016-11-16T23:10:25.176Z,0
2016-11-16T23:11:36.344Z,0
2016-11-16T23:12:47.796Z,0
2016-11-16T23:13:58.486Z,0
2016-11-16T23:15:09.218Z,0
2016-11-16T23:16:19.958Z,0
2016-11-16T23:17:30.738Z,0
2016-11-16T23:18:41.413Z,0
2016-11-16T23:19:52.588Z,0
2016-11-16T23:21:03.362Z,0
2016-11-16T23:22:14.509Z,0
2016-11-16T23:23:25.999Z,0
2016-11-16T23:24:36.717Z,0
2016-11-16T23:25:47.754Z,0
2016-11-16T23:26:58.373Z,0
2016-11-16T23:28:09.602Z,0
2016-11-16T23:29:20.321Z,0
2016-11-16T23:30:31.360Z,0
2016-11-16T23:31:42.069Z,0
2016-11-16T23:32:52.756Z,0
2016-11-16T23:34:04.179Z,0
2016-11-16T23:35:15.232Z,0
2016-11-16T23:36:26.360Z,0
2016-11-16T23:37:38.359Z,0
2016-11-16T23:38:49.816Z,0
2016-11-16T23:40:00.548Z,0
2016-11-16T23:41:11.260Z,0
2016-11-16T23:42:22.352Z,0
2016-11-16T23:43:33.922Z,0
2016-11-16T23:44:44.650Z,0
2016-11-16T23:45:55.758Z,0
2016-11-16T23:47:07.396Z,0
2016-11-16T23:48:18.481Z,0
2016-11-16T23:49:29.141Z,0
2016-11-16T23:50:39.838Z,0
2016-11-16T23:51:50.535Z,0
2016-11-16T23:53:01.671Z,0
2016-11-16T23:54:12.911Z,0
2016-11-16T23:55:23.977Z,0
2016-11-16T23:56:35.431Z,0
2016-11-16T23:57:46.713Z,0
2016-11-16T23:58:57.494Z,0
